Time;durP1;ratioP1;P1;durP2;ratioP2;P2;SDS_P1;SDS_P2;PMS_P1;PMS_P2;Temp;Humidity;BMP_temperature;BMP_pressure;BME280_temperature;BME280_humidity;BME280_pressure;Samples;Min_cycle;Max_cycle;Signal;HPM_P1;HPM_P2
2020/12/08 00:01:25;;;;;;;11.00;7.80;;;4.70;99.90;;;;;;5073788;28;20537;-67
2020/12/08 00:03:51;;;;;;;8.60;7.70;;;4.70;99.90;;;;;;5074003;28;20220;-70
2020/12/08 00:06:16;;;;;;;10.10;7.90;;;4.70;99.90;;;;;;5072341;28;20210;-70
2020/12/08 00:08:42;;;;;;;10.63;8.10;;;4.60;99.90;;;;;;5073711;28;20261;-70
2020/12/08 00:11:13;;;;;;;8.47;6.40;;;4.60;99.90;;;;;;5073515;28;20209;-70
2020/12/08 00:13:39;;;;;;;11.67;7.07;;;4.60;99.90;;;;;;5073807;28;20175;-70
2020/12/08 00:16:04;;;;;;;11.70;9.10;;;4.60;99.90;;;;;;5073181;28;20831;-66
2020/12/08 00:18:31;;;;;;;10.90;7.07;;;4.60;99.90;;;;;;5073302;28;20184;-66
2020/12/08 00:20:57;;;;;;;12.47;8.40;;;4.80;99.90;;;;;;5072665;28;20179;-66
2020/12/08 00:23:22;;;;;;;13.10;8.37;;;4.90;99.90;;;;;;5073278;28;20419;-68
2020/12/08 00:25:48;;;;;;;10.20;8.20;;;5.10;99.90;;;;;;5073288;28;20177;-68
2020/12/08 00:28:13;;;;;;;16.43;8.93;;;5.10;99.90;;;;;;5073231;28;20173;-68
2020/12/08 00:30:39;;;;;;;11.77;9.60;;;5.10;99.90;;;;;;5073185;28;20175;-69
2020/12/08 00:33:04;;;;;;;11.77;8.30;;;5.10;99.90;;;;;;5073200;28;20172;-69
2020/12/08 00:35:30;;;;;;;10.30;7.60;;;5.10;99.90;;;;;;5072673;28;20279;-68
2020/12/08 00:37:55;;;;;;;12.07;9.27;;;5.20;99.90;;;;;;5073209;28;20183;-69
2020/12/08 00:40:21;;;;;;;9.87;7.70;;;5.20;99.90;;;;;;5072960;28;20267;-69
2020/12/08 00:42:46;;;;;;;11.13;8.73;;;5.20;99.90;;;;;;5072934;28;20445;-72
2020/12/08 00:45:12;;;;;;;9.97;8.97;;;5.20;99.90;;;;;;5072876;28;20200;-72
2020/12/08 00:47:38;;;;;;;11.00;7.77;;;5.10;99.90;;;;;;5072913;28;20188;-72
2020/12/08 00:50:04;;;;;;;8.80;7.60;;;5.10;99.90;;;;;;5072844;28;20170;-72
2020/12/08 00:52:31;;;;;;;8.30;7.50;;;5.10;99.90;;;;;;5072727;28;20571;-67
2020/12/08 00:54:56;;;;;;;10.60;9.33;;;5.10;99.90;;;;;;5072765;28;20430;-68
2020/12/08 00:57:22;;;;;;;11.37;8.47;;;5.10;99.90;;;;;;5072655;28;20611;-68
2020/12/08 00:59:48;;;;;;;10.30;8.53;;;5.20;99.90;;;;;;5072637;28;20215;-68
2020/12/08 01:02:16;;;;;;;10.40;7.70;;;5.10;99.90;;;;;;5072564;28;20423;-68
2020/12/08 01:04:42;;;;;;;10.07;7.83;;;5.10;99.90;;;;;;5072754;28;20516;-68
2020/12/08 01:07:08;;;;;;;14.33;8.20;;;5.00;99.90;;;;;;5072426;28;20427;-68
2020/12/08 01:09:34;;;;;;;13.77;7.40;;;5.00;99.90;;;;;;5072618;28;20432;-68
2020/12/08 01:11:59;;;;;;;9.60;7.90;;;5.00;99.90;;;;;;5072572;28;20167;-68
2020/12/08 01:14:25;;;;;;;12.40;8.57;;;4.90;99.90;;;;;;5072513;28;20418;-69
2020/12/08 01:16:50;;;;;;;12.60;8.27;;;4.80;99.90;;;;;;5072342;28;20218;-68
2020/12/08 01:19:16;;;;;;;11.03;8.30;;;4.80;99.90;;;;;;5072394;28;20181;-67
2020/12/08 01:21:41;;;;;;;11.43;8.10;;;4.80;99.90;;;;;;5072427;28;20178;-67
2020/12/08 01:24:07;;;;;;;9.83;8.83;;;4.80;99.90;;;;;;5072426;28;20175;-67
2020/12/08 01:26:32;;;;;;;10.27;8.83;;;4.80;99.90;;;;;;5072515;28;20177;-67
2020/12/08 01:28:58;;;;;;;10.17;8.70;;;4.80;99.90;;;;;;5071889;28;20264;-67
2020/12/08 01:31:33;;;;;;;14.80;9.77;;;4.70;99.90;;;;;;5071539;28;20174;-68
2020/12/08 01:33:59;;;;;;;16.03;8.70;;;4.70;99.90;;;;;;5073107;28;20174;-69
2020/12/08 01:36:24;;;;;;;14.60;9.63;;;4.70;99.90;;;;;;5072592;28;21037;-68
2020/12/08 01:38:50;;;;;;;13.37;9.83;;;4.70;99.90;;;;;;5073181;28;20189;-68
2020/12/08 01:41:16;;;;;;;11.87;9.40;;;4.70;99.90;;;;;;5073075;28;20684;-69
2020/12/08 01:43:54;;;;;;;16.90;9.10;;;4.70;99.90;;;;;;5072985;28;20271;-68
2020/12/08 01:46:25;;;;;;;10.67;8.83;;;4.60;99.90;;;;;;5073039;28;20432;-68
2020/12/08 01:48:52;;;;;;;11.30;9.00;;;4.60;99.90;;;;;;5073045;28;20452;-68
2020/12/08 01:51:19;;;;;;;14.00;8.37;;;4.60;99.90;;;;;;5072897;28;20427;-68
2020/12/08 01:53:47;;;;;;;13.47;8.90;;;4.50;99.90;;;;;;5072897;28;20444;-68
2020/12/08 01:56:13;;;;;;;11.53;9.63;;;4.50;99.90;;;;;;5072759;28;20474;-68
2020/12/08 01:58:38;;;;;;;13.00;9.33;;;4.50;99.90;;;;;;5072938;28;20422;-68
2020/12/08 02:01:04;;;;;;;13.00;9.37;;;4.40;99.90;;;;;;5072886;28;20566;-68
2020/12/08 02:03:30;;;;;;;16.80;9.90;;;4.40;99.90;;;;;;5072805;28;20185;-68
2020/12/08 02:05:56;;;;;;;11.70;8.57;;;4.40;99.90;;;;;;5072839;28;20418;-68
2020/12/08 02:08:32;;;;;;;11.50;9.13;;;4.30;99.90;;;;;;5072743;28;20469;-68
2020/12/08 02:10:58;;;;;;;13.27;9.00;;;4.40;99.90;;;;;;5072846;28;20181;-68
2020/12/08 02:13:24;;;;;;;11.03;9.37;;;4.40;99.90;;;;;;5072662;28;20456;-68
2020/12/08 02:15:50;;;;;;;13.87;9.73;;;4.40;99.90;;;;;;5072635;28;20977;-68
2020/12/08 02:18:16;;;;;;;13.20;9.40;;;4.40;99.90;;;;;;5072635;28;20430;-68
2020/12/08 02:20:42;;;;;;;11.40;8.27;;;4.40;99.90;;;;;;5072744;28;20426;-66
2020/12/08 02:23:08;;;;;;;11.37;8.20;;;4.30;99.90;;;;;;5072643;28;20185;-65
2020/12/08 02:25:34;;;;;;;10.63;8.83;;;4.30;99.90;;;;;;5072639;28;20210;-66
2020/12/08 02:28:00;;;;;;;11.50;8.63;;;4.30;99.90;;;;;;5072673;28;20423;-66
2020/12/08 02:30:25;;;;;;;12.33;9.40;;;4.20;99.90;;;;;;5072610;28;20419;-65
2020/12/08 02:32:51;;;;;;;13.23;8.57;;;4.20;99.90;;;;;;5072881;28;20182;-65
2020/12/08 02:35:17;;;;;;;12.90;9.53;;;4.20;99.90;;;;;;5072304;28;20568;-67
2020/12/08 02:37:42;;;;;;;15.27;9.43;;;4.20;99.90;;;;;;5072573;28;20216;-65
2020/12/08 02:40:08;;;;;;;11.37;9.23;;;4.20;99.90;;;;;;5072671;28;20183;-65
2020/12/08 02:42:33;;;;;;;12.93;10.13;;;4.10;99.90;;;;;;5072624;28;20196;-65
2020/12/08 02:44:59;;;;;;;11.30;9.53;;;4.00;99.90;;;;;;5076099;28;20178;-65
2020/12/08 02:47:25;;;;;;;13.33;9.07;;;4.00;99.90;;;;;;5076030;28;20269;-65
2020/12/08 02:49:54;;;;;;;13.47;9.33;;;4.00;99.90;;;;;;5076063;28;20637;-64
2020/12/08 02:52:20;;;;;;;14.20;9.63;;;4.00;99.90;;;;;;5075970;28;20234;-65
2020/12/08 02:54:46;;;;;;;14.90;8.63;;;3.90;99.90;;;;;;5075938;28;20766;-65
2020/12/08 02:57:11;;;;;;;11.33;9.03;;;3.90;99.90;;;;;;5075795;28;20478;-65
2020/12/08 02:59:37;;;;;;;11.20;10.00;;;3.90;99.90;;;;;;5075849;28;20604;-65
2020/12/08 03:02:02;;;;;;;15.90;10.30;;;3.90;99.90;;;;;;5075760;28;20193;-66
2020/12/08 03:04:28;;;;;;;12.30;8.97;;;3.80;99.90;;;;;;5075757;28;20693;-65
2020/12/08 03:06:53;;;;;;;12.60;9.03;;;3.80;99.90;;;;;;5075745;28;20215;-65
2020/12/08 03:09:19;;;;;;;13.33;9.37;;;3.80;99.90;;;;;;5075627;28;20180;-66
2020/12/08 03:11:45;;;;;;;12.00;8.90;;;3.80;99.90;;;;;;5075693;28;20179;-65
2020/12/08 03:14:10;;;;;;;13.90;8.70;;;3.70;99.90;;;;;;5075524;28;20176;-65
2020/12/08 03:16:36;;;;;;;15.67;10.20;;;3.70;99.90;;;;;;5075626;28;20219;-65
2020/12/08 03:19:02;;;;;;;11.97;9.57;;;3.70;99.90;;;;;;5075461;28;20175;-65
2020/12/08 03:21:32;;;;;;;12.43;9.30;;;3.80;99.90;;;;;;5075373;28;20187;-65
2020/12/08 03:23:58;;;;;;;14.03;10.73;;;3.80;99.90;;;;;;5075479;28;20182;-65
2020/12/08 03:26:23;;;;;;;12.03;9.13;;;3.80;99.90;;;;;;5075283;28;20428;-65
2020/12/08 03:28:49;;;;;;;12.60;9.13;;;3.80;99.90;;;;;;5075345;28;20180;-65
2020/12/08 03:31:15;;;;;;;13.57;9.63;;;3.80;99.90;;;;;;5075273;28;20178;-65
2020/12/08 03:33:41;;;;;;;12.67;10.10;;;3.80;99.90;;;;;;5075345;28;20643;-66
2020/12/08 03:36:11;;;;;;;12.47;9.20;;;3.90;99.90;;;;;;5074956;28;20234;-67
2020/12/08 03:38:37;;;;;;;12.10;9.20;;;3.90;99.90;;;;;;5075252;28;20760;-67
2020/12/08 03:41:02;;;;;;;17.10;10.10;;;3.90;99.90;;;;;;5074990;28;20438;-68
2020/12/08 03:43:28;;;;;;;12.20;8.80;;;3.90;99.90;;;;;;5074996;28;20198;-68
2020/12/08 03:45:54;;;;;;;13.90;9.03;;;3.90;99.90;;;;;;5075066;28;20177;-68
2020/12/08 03:48:19;;;;;;;13.73;10.87;;;3.90;99.90;;;;;;5074976;28;20207;-68
2020/12/08 03:50:45;;;;;;;13.60;9.20;;;3.80;99.90;;;;;;5074977;28;20699;-68
2020/12/08 03:53:10;;;;;;;18.00;10.23;;;3.80;99.90;;;;;;5074828;28;20173;-68
2020/12/08 03:55:36;;;;;;;20.17;10.37;;;3.90;99.90;;;;;;5074837;28;20580;-65
2020/12/08 03:58:01;;;;;;;13.77;9.90;;;3.80;99.90;;;;;;5074721;28;20183;-65
2020/12/08 04:00:27;;;;;;;14.87;10.30;;;3.90;99.90;;;;;;5074744;28;20176;-65
2020/12/08 04:02:52;;;;;;;14.50;10.63;;;3.90;99.90;;;;;;5074675;28;20178;-65
2020/12/08 04:05:18;;;;;;;13.60;9.63;;;3.90;99.90;;;;;;5074546;28;20651;-65
2020/12/08 04:07:43;;;;;;;15.37;10.83;;;3.90;99.90;;;;;;5074421;28;20186;-65
2020/12/08 04:10:09;;;;;;;11.67;9.73;;;3.90;99.90;;;;;;5074422;28;20174;-71
2020/12/08 04:12:34;;;;;;;15.73;9.00;;;4.00;99.90;;;;;;5074496;28;20252;-71
2020/12/08 04:15:00;;;;;;;12.23;9.00;;;4.00;99.90;;;;;;5074424;28;20174;-67
2020/12/08 04:17:25;;;;;;;11.97;8.70;;;4.00;99.90;;;;;;5074250;28;20248;-67
2020/12/08 04:19:51;;;;;;;14.20;9.60;;;4.00;99.90;;;;;;5074391;28;20618;-67
2020/12/08 04:22:16;;;;;;;12.13;9.17;;;4.10;99.90;;;;;;5074189;28;20178;-67
2020/12/08 04:24:42;;;;;;;13.17;8.30;;;4.00;99.90;;;;;;5074305;28;20203;-65
2020/12/08 04:27:07;;;;;;;11.87;8.43;;;4.10;99.90;;;;;;5074090;28;20585;-65
2020/12/08 04:29:33;;;;;;;13.17;10.90;;;4.10;99.90;;;;;;5074145;28;20684;-70
2020/12/08 06:31:46;;;;;;;19.23;13.40;;;5.20;99.90;;;;;;5541226;23;20568;-65
2020/12/08 06:34:20;;;;;;;25.33;14.97;;;5.20;99.90;;;;;;4996655;28;20445;-65
2020/12/08 06:36:45;;;;;;;16.90;12.83;;;5.20;99.90;;;;;;4994691;28;20478;-65
2020/12/08 06:39:12;;;;;;;19.20;13.93;;;5.20;99.90;;;;;;4996022;28;20431;-65
2020/12/08 06:41:41;;;;;;;21.00;14.97;;;5.30;99.90;;;;;;4996353;28;20191;-65
2020/12/08 06:44:14;;;;;;;20.57;13.60;;;5.30;99.90;;;;;;4996263;28;20518;-65
2020/12/08 06:46:54;;;;;;;23.00;14.73;;;5.40;99.90;;;;;;4996267;28;20775;-65
2020/12/08 06:49:19;;;;;;;20.77;13.77;;;5.40;99.90;;;;;;4996131;28;20423;-65
2020/12/08 06:51:54;;;;;;;18.50;12.63;;;5.50;99.90;;;;;;4996886;28;20437;-66
2020/12/08 06:54:19;;;;;;;19.73;12.80;;;5.60;99.90;;;;;;4996675;28;20227;-65
2020/12/08 06:56:45;;;;;;;21.87;14.30;;;5.60;99.90;;;;;;4996585;28;20503;-65
2020/12/08 06:59:21;;;;;;;19.00;13.10;;;5.50;99.90;;;;;;4996427;28;20204;-65
2020/12/08 07:01:53;;;;;;;19.67;13.50;;;5.50;99.90;;;;;;4996560;28;20180;-65
2020/12/08 07:04:20;;;;;;;21.00;14.50;;;5.60;99.90;;;;;;4996462;28;20771;-65
2020/12/08 07:06:46;;;;;;;19.47;13.50;;;5.60;99.90;;;;;;4996471;28;20467;-65
2020/12/08 07:09:12;;;;;;;19.57;14.00;;;5.60;99.90;;;;;;4996077;28;20435;-66
2020/12/08 07:11:37;;;;;;;19.10;13.00;;;5.50;99.90;;;;;;4989567;28;20610;-68
2020/12/08 07:14:07;;;;;;;18.10;12.87;;;5.60;99.90;;;;;;4985455;28;21013;-68
2020/12/08 07:16:34;;;;;;;26.47;15.30;;;5.60;99.90;;;;;;5050567;23;20223;-65
2020/12/08 07:22:22;;;;;;;22.63;12.80;;;5.70;99.90;;;;;;5035709;28;20500;-65
2020/12/08 07:24:48;;;;;;;19.13;12.70;;;5.70;99.90;;;;;;5035898;28;20429;-65
2020/12/08 07:27:14;;;;;;;21.67;13.70;;;5.70;99.90;;;;;;5035841;28;20504;-67
2020/12/08 07:29:40;;;;;;;18.80;13.13;;;5.70;99.90;;;;;;5035272;28;20684;-67
2020/12/08 07:32:06;;;;;;;18.33;12.50;;;5.80;99.90;;;;;;5035733;28;20539;-65
2020/12/08 07:34:32;;;;;;;18.77;12.67;;;5.80;99.90;;;;;;5035700;28;20441;-65
2020/12/08 07:36:57;;;;;;;16.50;12.20;;;5.80;99.90;;;;;;5035859;28;20474;-65
2020/12/08 07:39:23;;;;;;;17.67;12.67;;;5.80;99.90;;;;;;5035549;28;20206;-66
2020/12/08 07:41:48;;;;;;;20.13;12.63;;;5.80;99.90;;;;;;5035543;28;20269;-66
2020/12/08 07:44:19;;;;;;;17.83;12.40;;;5.80;99.90;;;;;;5035093;28;20199;-66
2020/12/08 07:46:51;;;;;;;20.20;12.03;;;5.80;99.90;;;;;;5035377;28;20176;-66
2020/12/08 07:49:17;;;;;;;14.70;10.17;;;5.80;99.90;;;;;;5035004;28;20466;-66
2020/12/08 07:51:42;;;;;;;18.40;12.00;;;5.80;99.90;;;;;;5035195;28;20465;-66
2020/12/08 07:54:09;;;;;;;16.30;11.27;;;5.80;99.90;;;;;;5034976;28;20837;-65
2020/12/08 07:56:37;;;;;;;19.23;13.37;;;5.80;99.90;;;;;;5035233;28;20222;-66
2020/12/08 07:59:04;;;;;;;21.80;13.77;;;5.70;99.90;;;;;;5035142;28;20425;-65
2020/12/08 08:01:40;;;;;;;21.60;14.33;;;5.70;99.90;;;;;;5034878;28;20440;-67
2020/12/08 08:04:06;;;;;;;20.47;14.23;;;5.70;99.90;;;;;;5034848;28;20417;-66
2020/12/08 08:09:53;;;;;;;21.10;13.87;;;5.70;99.90;;;;;;5035118;28;20206;-67
2020/12/08 08:15:41;;;;;;;19.77;12.33;;;5.70;99.90;;;;;;5034621;28;20203;-63
2020/12/08 08:18:06;;;;;;;18.67;12.63;;;5.70;99.90;;;;;;5034077;28;20477;-63
2020/12/08 08:20:31;;;;;;;17.67;12.77;;;5.70;99.90;;;;;;5034977;28;20623;-63
2020/12/08 08:22:57;;;;;;;20.40;13.60;;;5.70;99.90;;;;;;5034693;28;20231;-63
2020/12/08 08:28:45;;;;;;;20.63;13.33;;;5.80;99.90;;;;;;5034796;28;20175;-64
2020/12/08 08:31:10;;;;;;;18.57;16.10;;;5.80;99.90;;;;;;5034569;28;20467;-63
2020/12/08 08:33:36;;;;;;;17.10;13.20;;;5.80;99.90;;;;;;5034422;28;20182;-63
2020/12/08 08:36:01;;;;;;;21.40;16.53;;;5.80;99.90;;;;;;5034446;28;20240;-63
2020/12/08 08:38:27;;;;;;;20.70;15.17;;;5.80;99.90;;;;;;5034331;28;20237;-64
2020/12/08 08:44:14;;;;;;;21.47;14.70;;;5.90;99.90;;;;;;5034436;28;20178;-63
2020/12/08 08:46:41;;;;;;;23.90;15.50;;;5.90;99.90;;;;;;5034265;28;20418;-63
2020/12/08 08:49:07;;;;;;;18.33;13.57;;;5.90;99.90;;;;;;5033890;28;20661;-62
2020/12/08 08:54:55;;;;;;;18.40;13.53;;;5.90;99.90;;;;;;5033907;28;20813;-62
2020/12/08 09:00:42;;;;;;;18.90;14.10;;;5.90;99.90;;;;;;5033825;28;20170;-62
2020/12/08 09:03:09;;;;;;;21.07;14.37;;;5.90;99.90;;;;;;5034002;28;20901;-63
2020/12/08 09:08:59;;;;;;;18.70;13.17;;;6.20;99.90;;;;;;5033705;28;20417;-63
2020/12/08 09:11:26;;;;;;;20.47;13.10;;;6.30;99.90;;;;;;5033844;28;20426;-66
2020/12/08 09:13:52;;;;;;;20.60;14.17;;;6.20;99.90;;;;;;5033848;28;20791;-67
2020/12/08 09:16:19;;;;;;;14.87;11.77;;;6.20;99.90;;;;;;5033523;28;20456;-66
2020/12/08 09:18:45;;;;;;;18.00;12.90;;;6.20;99.90;;;;;;5033906;28;20414;-67
2020/12/08 09:24:33;;;;;;;21.50;12.43;;;6.20;99.90;;;;;;5033761;28;20246;-67
2020/12/08 09:30:22;;;;;;;19.53;12.60;;;6.20;99.90;;;;;;5033458;28;20410;-64
2020/12/08 09:32:48;;;;;;;22.20;14.63;;;6.30;99.90;;;;;;5033572;28;20435;-61
2020/12/08 09:35:15;;;;;;;22.40;13.77;;;6.30;99.90;;;;;;5033564;28;20433;-61
2020/12/08 09:41:02;;;;;;;19.87;13.63;;;6.30;99.90;;;;;;5033658;28;20465;-62
2020/12/08 09:43:27;;;;;;;20.83;11.97;;;6.30;99.90;;;;;;5033216;28;20776;-62
2020/12/08 09:45:54;;;;;;;20.10;13.90;;;6.30;99.90;;;;;;5033504;28;20185;-62
2020/12/08 09:51:41;;;;;;;15.70;11.93;;;6.40;99.90;;;;;;5033336;28;20396;-65
2020/12/08 09:57:29;;;;;;;21.47;13.27;;;6.40;99.90;;;;;;5037096;28;20512;-65
2020/12/08 09:59:54;;;;;;;19.27;13.43;;;6.40;99.90;;;;;;5037111;28;20516;-65
2020/12/08 10:02:23;;;;;;;19.17;13.93;;;6.50;99.90;;;;;;5037261;28;20182;-66
2020/12/08 10:04:49;;;;;;;19.40;14.33;;;6.40;99.90;;;;;;5037337;28;20179;-66
2020/12/08 10:07:18;;;;;;;23.30;15.77;;;6.50;99.90;;;;;;5037072;28;20462;-66
2020/12/08 10:09:46;;;;;;;25.70;20.67;;;6.50;99.90;;;;;;5037220;28;20434;-66
2020/12/08 10:15:33;;;;;;;21.97;15.07;;;6.60;99.90;;;;;;5036923;28;20849;-65
2020/12/08 10:17:59;;;;;;;20.23;13.00;;;6.60;99.90;;;;;;5036767;28;20565;-66
2020/12/08 10:23:47;;;;;;;23.00;16.23;;;6.60;99.90;;;;;;5036978;28;20163;-63
2020/12/08 10:26:12;;;;;;;31.50;18.40;;;6.60;99.90;;;;;;5038192;28;20483;-64
2020/12/08 10:28:39;;;;;;;26.80;18.47;;;6.70;99.90;;;;;;5044474;28;20438;-64
2020/12/08 10:31:04;;;;;;;27.07;19.30;;;6.70;99.90;;;;;;5037017;28;20248;-63
2020/12/08 10:33:30;;;;;;;24.77;16.70;;;6.70;99.90;;;;;;5036709;28;20533;-63
2020/12/08 10:39:17;;;;;;;24.83;16.27;;;6.70;99.90;;;;;;5036619;28;20163;-63
2020/12/08 10:45:04;;;;;;;26.73;14.73;;;6.80;99.90;;;;;;5036484;28;20210;-63
2020/12/08 10:47:30;;;;;;;32.13;16.50;;;6.80;99.90;;;;;;5036320;28;20434;-63
2020/12/08 10:53:18;;;;;;;28.17;20.53;;;6.80;99.90;;;;;;5036274;28;20406;-63
2020/12/08 10:59:05;;;;;;;29.50;21.80;;;6.80;99.90;;;;;;5036443;28;20171;-63
2020/12/08 11:01:31;;;;;;;24.73;17.87;;;6.80;99.90;;;;;;5036388;28;20426;-64
2020/12/08 11:07:18;;;;;;;28.67;19.77;;;6.90;99.90;;;;;;5036103;28;20578;-64
2020/12/08 11:13:06;;;;;;;28.03;19.17;;;6.90;99.90;;;;;;5035937;28;20163;-65
2020/12/08 11:15:31;;;;;;;29.63;20.33;;;6.90;99.90;;;;;;5036542;28;20748;-64
2020/12/08 11:17:57;;;;;;;33.40;19.40;;;7.00;99.90;;;;;;5035611;28;20361;-65
2020/12/08 11:20:23;;;;;;;28.30;19.53;;;7.00;99.90;;;;;;5035977;28;20175;-63
2020/12/08 11:22:48;;;;;;;31.17;19.80;;;7.00;99.90;;;;;;5035953;28;20176;-63
2020/12/08 11:28:35;;;;;;;45.43;25.27;;;7.00;99.90;;;;;;5035538;28;20251;-64
2020/12/08 11:34:23;;;;;;;27.40;22.77;;;7.10;99.90;;;;;;5035497;28;20522;-67
2020/12/08 11:36:55;;;;;;;36.23;25.30;;;7.20;99.90;;;;;;5035256;28;20466;-67
2020/12/08 11:39:21;;;;;;;42.53;24.73;;;7.20;99.90;;;;;;5035761;28;20167;-67
2020/12/08 11:41:46;;;;;;;35.40;24.90;;;7.30;99.90;;;;;;5035550;28;20917;-67
2020/12/08 11:44:12;;;;;;;39.33;24.83;;;7.30;99.90;;;;;;5035556;28;20538;-67
2020/12/08 11:46:38;;;;;;;37.80;27.57;;;7.30;99.90;;;;;;5035158;28;20171;-67
2020/12/08 11:49:04;;;;;;;38.40;29.20;;;7.30;99.90;;;;;;5035497;28;20179;-66
2020/12/08 11:51:32;;;;;;;44.60;31.07;;;7.30;99.90;;;;;;5035527;28;20521;-66
2020/12/08 11:53:58;;;;;;;49.00;35.13;;;7.30;99.90;;;;;;5035381;28;20411;-66
2020/12/08 11:56:26;;;;;;;54.33;36.83;;;7.30;99.90;;;;;;5034723;28;20976;-66
2020/12/08 11:58:53;;;;;;;49.93;35.50;;;7.30;99.90;;;;;;5035155;28;20427;-66
2020/12/08 12:01:18;;;;;;;47.80;36.23;;;7.30;99.90;;;;;;5035244;28;20426;-66
2020/12/08 12:03:44;;;;;;;29.23;19.03;;;7.30;99.90;;;;;;5035264;28;20440;-66
2020/12/08 12:06:12;;;;;;;21.90;15.47;;;7.30;99.90;;;;;;5035273;28;20217;-66
2020/12/08 12:12:00;;;;;;;26.47;17.40;;;7.30;99.90;;;;;;5035310;28;20460;-63
2020/12/08 12:14:25;;;;;;;31.17;20.02;;;7.30;99.90;;;;;;5035036;28;20417;-70
2020/12/08 12:16:51;;;;;;;89.13;43.23;;;8.50;99.90;;;;;;5040474;28;20235;-71
2020/12/08 12:22:39;;;;;;;35.53;18.60;;;8.90;99.90;;;;;;5034757;28;20578;-70
2020/12/08 12:28:26;;;;;;;20.63;14.20;;;9.20;99.90;;;;;;5034587;28;20163;-70
2020/12/08 12:34:14;;;;;;;22.63;15.63;;;9.40;99.90;;;;;;5034323;28;20752;-71
2020/12/08 12:40:02;;;;;;;21.13;15.50;;;9.80;99.90;;;;;;5034259;28;20453;-70
2020/12/08 12:45:49;;;;;;;15.40;10.70;;;10.30;99.90;;;;;;5034109;28;20410;-68
2020/12/08 12:51:37;;;;;;;16.50;10.97;;;9.60;99.90;;;;;;5034015;28;20625;-68
2020/12/08 12:57:24;;;;;;;23.13;12.90;;;9.00;99.90;;;;;;5033824;28;20238;-67
2020/12/08 13:03:12;;;;;;;16.50;11.00;;;8.60;99.90;;;;;;5033653;28;20175;-68
2020/12/08 13:05:37;;;;;;;12.90;9.77;;;8.50;99.90;;;;;;5033930;28;20933;-68
2020/12/08 13:11:25;;;;;;;12.00;9.07;;;8.30;99.90;;;;;;5033632;28;20228;-68
2020/12/08 13:17:12;;;;;;;14.60;10.27;;;8.10;99.90;;;;;;5033049;28;20536;-73
2020/12/08 13:19:38;;;;;;;13.60;8.80;;;8.20;99.90;;;;;;5033649;28;20426;-74
2020/12/08 13:25:25;;;;;;;14.00;10.80;;;8.20;99.90;;;;;;5033469;28;20170;-76
2020/12/08 13:27:51;;;;;;;14.90;9.90;;;8.20;99.90;;;;;;5033025;28;20423;-75
2020/12/08 13:30:16;;;;;;;15.63;10.37;;;8.20;99.90;;;;;;5033876;28;20527;-74
2020/12/08 13:32:42;;;;;;;17.80;11.30;;;8.00;99.90;;;;;;5033586;28;20270;-73
2020/12/08 13:38:55;;;;;;;13.20;9.90;;;8.00;99.90;;;;;;5033373;28;20694;-73
2020/12/08 13:41:20;;;;;;;15.90;11.00;;;8.00;99.90;;;;;;5033125;28;20438;-74
2020/12/08 13:47:07;;;;;;;15.77;10.33;;;7.90;99.90;;;;;;5033286;28;20230;-72
2020/12/08 13:49:33;;;;;;;16.83;12.07;;;7.90;99.90;;;;;;5033440;28;20458;-73
2020/12/08 13:51:59;;;;;;;17.13;11.10;;;7.80;99.90;;;;;;5033352;28;20199;-72
2020/12/08 13:54:24;;;;;;;14.90;10.90;;;7.70;99.90;;;;;;5033243;28;20176;-74
2020/12/08 13:56:50;;;;;;;16.77;11.17;;;7.70;99.90;;;;;;5033180;28;20212;-73
2020/12/08 13:59:15;;;;;;;16.50;11.00;;;7.70;99.90;;;;;;5033297;28;20519;-74
2020/12/08 14:01:43;;;;;;;18.37;11.30;;;7.70;99.90;;;;;;5033200;28;20189;-74
2020/12/08 14:04:08;;;;;;;16.10;10.63;;;7.70;99.90;;;;;;5033339;28;20175;-71
2020/12/08 14:06:40;;;;;;;14.77;10.50;;;7.70;99.90;;;;;;5032841;28;20777;-71
2020/12/08 14:09:05;;;;;;;18.53;12.50;;;7.70;99.90;;;;;;5033312;28;20172;-71
2020/12/08 14:11:31;;;;;;;15.63;12.50;;;7.70;99.90;;;;;;5033660;28;20429;-71
2020/12/08 14:13:56;;;;;;;15.70;11.83;;;7.70;99.90;;;;;;5033216;28;20548;-72
2020/12/08 14:16:22;;;;;;;16.20;11.63;;;7.70;99.90;;;;;;5032886;28;20254;-68
2020/12/08 14:18:47;;;;;;;14.60;10.20;;;7.70;99.90;;;;;;5032806;28;20202;-69
2020/12/08 14:21:13;;;;;;;15.47;11.13;;;7.70;99.90;;;;;;5032747;28;20208;-74
2020/12/08 14:27:02;;;;;;;19.00;13.60;;;7.70;99.90;;;;;;5032901;28;20155;-73
2020/12/08 14:32:49;;;;;;;25.33;18.17;;;7.60;99.90;;;;;;5032727;28;20456;-69
2020/12/08 14:35:15;;;;;;;28.47;17.67;;;7.60;99.90;;;;;;5033031;28;20417;-69
2020/12/08 14:41:02;;;;;;;17.13;12.60;;;7.50;99.90;;;;;;5036431;28;20167;-67
2020/12/08 14:43:28;;;;;;;17.83;11.60;;;7.50;99.90;;;;;;5036746;28;20905;-67
2020/12/08 14:45:54;;;;;;;16.97;11.87;;;7.50;99.90;;;;;;5036713;28;20176;-67
2020/12/08 14:48:19;;;;;;;17.63;11.80;;;7.40;99.90;;;;;;5036696;28;20264;-67
2020/12/08 14:50:45;;;;;;;17.80;12.40;;;7.40;99.90;;;;;;5036498;28;20504;-68
2020/12/08 14:56:32;;;;;;;19.20;11.00;;;7.40;99.90;;;;;;5036385;28;20677;-68
2020/12/08 15:02:20;;;;;;;15.10;10.80;;;7.40;99.90;;;;;;5036166;28;20233;-68
2020/12/08 15:04:46;;;;;;;16.67;12.77;;;7.40;99.90;;;;;;5036272;28;20423;-69
2020/12/08 15:07:12;;;;;;;15.83;11.20;;;7.30;99.90;;;;;;5036291;28;20480;-68
2020/12/08 15:09:37;;;;;;;17.57;12.03;;;7.30;99.90;;;;;;5036679;28;20171;-68
2020/12/08 15:12:03;;;;;;;20.00;11.80;;;7.30;99.90;;;;;;5035811;28;20175;-68
2020/12/08 15:17:50;;;;;;;15.90;11.90;;;7.30;99.90;;;;;;5029683;28;20247;-68
2020/12/08 15:23:38;;;;;;;18.07;10.00;;;7.20;99.90;;;;;;5035753;28;20159;-69
2020/12/08 15:26:03;;;;;;;15.23;9.63;;;7.20;99.90;;;;;;5035733;28;20786;-69
2020/12/08 15:31:51;;;;;;;16.43;10.50;;;7.30;99.90;;;;;;5035247;28;20178;-68
2020/12/08 15:37:39;;;;;;;12.90;9.60;;;7.30;99.90;;;;;;5035409;28;21011;-68
2020/12/08 15:43:27;;;;;;;16.80;9.73;;;7.20;99.90;;;;;;5035483;28;20460;-69
2020/12/08 15:45:54;;;;;;;15.77;10.00;;;7.10;99.90;;;;;;5017477;28;21012;-69
2020/12/08 15:48:20;;;;;;;13.23;9.63;;;7.10;99.90;;;;;;5035233;28;20426;-68
2020/12/08 15:50:46;;;;;;;13.40;9.70;;;7.10;99.90;;;;;;5034883;28;20449;-68
2020/12/08 15:56:40;;;;;;;11.63;9.43;;;7.00;99.90;;;;;;5034786;28;20560;-67
2020/12/08 15:59:06;;;;;;;11.23;9.13;;;7.00;99.90;;;;;;5035287;28;20441;-68
2020/12/08 16:01:32;;;;;;;13.73;9.83;;;7.00;99.90;;;;;;5035230;28;20429;-69
2020/12/08 16:03:57;;;;;;;13.50;10.37;;;7.00;99.90;;;;;;5035119;28;20423;-69
2020/12/08 16:06:34;;;;;;;19.47;12.70;;;7.00;99.90;;;;;;5034855;28;20433;-68
2020/12/08 16:09:00;;;;;;;11.53;9.90;;;6.90;99.90;;;;;;5035036;28;20207;-69
2020/12/08 16:11:26;;;;;;;11.17;8.77;;;7.00;99.90;;;;;;5034948;28;20433;-69
2020/12/08 16:13:52;;;;;;;12.13;9.60;;;6.90;99.90;;;;;;5034785;28;20430;-68
2020/12/08 16:19:46;;;;;;;11.87;9.00;;;6.90;99.90;;;;;;5024331;28;20367;-68
2020/12/08 16:22:11;;;;;;;14.87;10.60;;;6.90;99.90;;;;;;5034639;28;20501;-70
2020/12/08 16:24:38;;;;;;;17.00;9.43;;;6.90;99.90;;;;;;5034642;28;20175;-69
2020/12/08 16:27:03;;;;;;;15.57;11.52;;;6.90;99.90;;;;;;5034254;28;20426;-70
2020/12/08 16:29:29;;;;;;;17.77;13.47;;;6.90;99.90;;;;;;5034289;28;20171;-70
2020/12/08 16:32:03;;;;;;;13.77;11.40;;;6.80;99.90;;;;;;5034657;28;20179;-69
2020/12/08 16:37:50;;;;;;;20.53;12.47;;;6.80;99.90;;;;;;5034779;28;20860;-69
2020/12/08 16:40:16;;;;;;;19.57;13.17;;;6.70;99.90;;;;;;5034300;28;20426;-69
2020/12/08 16:46:04;;;;;;;13.97;9.93;;;6.60;99.90;;;;;;5034357;28;20226;-69
2020/12/08 16:48:29;;;;;;;22.10;16.20;;;6.60;99.90;;;;;;5034526;28;20457;-69
2020/12/08 16:50:55;;;;;;;19.33;15.00;;;6.60;99.90;;;;;;5034390;28;20223;-70
2020/12/08 16:53:20;;;;;;;17.60;12.10;;;6.60;99.90;;;;;;5034040;28;20182;-69
2020/12/08 16:55:46;;;;;;;13.87;10.30;;;6.60;99.90;;;;;;5034320;28;20266;-69
2020/12/08 16:58:11;;;;;;;11.13;8.80;;;6.50;99.90;;;;;;5034386;28;20204;-69
2020/12/08 17:00:37;;;;;;;12.40;10.13;;;6.50;99.90;;;;;;5034303;28;20168;-70
2020/12/08 17:03:03;;;;;;;11.73;9.40;;;6.50;99.90;;;;;;5033703;28;20176;-70
2020/12/08 17:05:29;;;;;;;15.47;10.53;;;6.50;99.90;;;;;;5034061;28;20229;-70
2020/12/08 17:07:55;;;;;;;10.70;9.40;;;6.50;99.90;;;;;;5034025;28;20437;-69
2020/12/08 17:13:43;;;;;;;20.43;9.30;;;6.50;99.90;;;;;;5033803;28;20453;-72
2020/12/08 17:16:10;;;;;;;17.60;10.23;;;6.50;99.90;;;;;;5015916;28;20965;-70
2020/12/08 17:25:58;;;;;;;14.27;10.50;;;6.80;99.90;;;;;;5034006;28;20449;-69
2020/12/08 17:28:23;;;;;;;15.43;11.27;;;6.70;99.90;;;;;;5034282;28;20425;-69
2020/12/08 17:34:11;;;;;;;12.27;8.97;;;6.60;99.90;;;;;;5033620;28;20173;-69
2020/12/08 17:36:37;;;;;;;16.80;11.70;;;6.60;99.90;;;;;;5033783;28;20560;-69
2020/12/08 17:39:06;;;;;;;16.10;9.83;;;6.60;99.90;;;;;;5033565;28;20172;-70
2020/12/08 17:44:54;;;;;;;16.13;11.23;;;6.50;99.90;;;;;;5033425;28;20457;-69